Latest Coastal Weather Observations for Ulladulla

IDN60701

Issued at 4:21 pm EDT Wednesday 29 March 2017 (issued every 10 minutes, with the page automatically refreshed every 10 minutes)

About coastal observations | Map of coastal stations | Coastal observations for NSW | Marine services | Other Formats
Station Details ID: 069138 Name: ULLADULLA AWS Lat: -35.36 Lon: 150.48 Height: 35.7 m
Data from the previous 72 hours. | See also: Recent months at Ulladulla
Date/Time
EDT
Temp
°C
Wind Pressure Rain since
9am
mm
Weather Cloud Vis
km
Sea
Height
m
Swell
Dir  Spd
kts
Gust
kts
hPa Trend Height
m
Period
s
Dir
29/04:00pm 25.1 NE 5 10 1005.5 - 0.0 - - - - - - -
29/03:30pm 25.3 NE 4 9 1005.9 - 0.0 - - - - - - -
29/03:00pm 25.1 NE 6 10 1006.1 - 0.0 - - - - - - -
29/02:30pm 25.0 NE 6 9 1006.5 - 0.0 - - - - - - -
29/02:00pm 24.7 NE 8 15 1006.8 - 0.0 - - - - - - -
29/01:30pm 24.5 NNE 8 13 1007.4 - 0.0 - - - - - - -
29/01:00pm 25.3 NE 6 10 1008.0 - 0.0 - - - - - - -
29/12:30pm 24.6 NE 8 13 1008.6 - 0.0 - - - - - - -
29/12:00pm 23.9 NE 13 16 1008.9 - 0.0 - - - - - - -
29/11:30am 23.5 NE 10 15 1009.4 - 0.0 - - - - - - -
29/11:00am 24.3 N 4 6 1010.1 - 0.0 - - - - - - -
29/10:30am 22.7 N 10 13 1010.4 - 0.0 - - - - - - -
29/10:00am 22.4 NNE 4 8 1010.6 - 0.0 - - - - - - -
29/09:30am 21.5 N 6 10 1010.8 - 0.0 - - - - - - -
29/09:00am 20.3 N 4 7 1011.0 - 0.0 - - - - - - -
29/08:30am 19.1 N 7 9 1011.1 - 0.0 - - - - - - -
29/08:00am 18.5 N 3 5 1011.1 - 0.0 - - - - - - -
29/07:30am 17.5 NNW 2 4 1010.9 - 0.0 - - - - - - -
29/07:00am 17.6 NNW 2 2 1010.8 - 0.0 - - - - - - -
29/06:30am 17.9 NNW 2 3 1010.8 - 0.0 - - - - - - -
29/06:00am 18.2 NNW 1 2 1010.9 - 0.0 - - - - - - -
29/05:30am 18.0 NNW 2 3 1010.8 - 0.0 - - - - - - -
29/05:00am 18.3 NNW 2 3 1010.9 - 0.0 - - - - - - -
29/04:30am 18.5 NW 3 4 1011.0 - 0.0 - - - - - - -
29/04:00am 18.7 NNW 3 4 1010.9 - 0.0 - - - - - - -
29/03:30am 19.6 NNW 3 4 1011.1 - 0.0 - - - - - - -
29/03:00am 20.3 CALM 0 2 1011.5 - 0.0 - - - - - - -
29/02:30am 20.6 CALM 0 2 1011.9 - 0.0 - - - - - - -
29/02:00am 20.3 NNE 1 3 1012.3 - 0.0 - - - - - - -
29/01:30am 19.9 CALM 0 0 1012.8 - 0.0 - - - - - - -
29/01:00am 19.9 CALM 0 0 1013.0 - 0.0 - - - - - - -
29/12:30am 19.4 CALM 0 0 1013.3 - 0.0 - - - - - - -
29/12:00am 19.6 CALM 0 1 1013.5 - 0.0 - - - - - - -
 
Date/Time
EDT
Temp
°C
Wind Pressure Rain since
9am
mm
Weather Cloud Vis
km
Sea
Height
m
Swell
Dir  Spd
kts
Gust
kts
hPa Trend Height
m
Period
s
Dir
28/11:30pm 19.5 NNW 2 3 1013.6 - 0.0 - - - - - - -
28/11:00pm 19.8 NW 2 3 1013.8 - 0.0 - - - - - - -
28/10:30pm 19.8 NNW 3 4 1013.9 - 0.0 - - - - - - -
28/10:00pm 20.0 NW 3 5 1013.9 - 0.0 - - - - - - -
28/09:30pm 20.1 NW 3 4 1013.9 - 0.0 - - - - - - -
28/09:00pm 20.1 WNW 3 4 1013.7 - 0.0 - - - - - - -
28/08:30pm 20.2 W 1 2 1013.5 - 0.0 - - - - - - -
28/08:00pm 20.2 W 2 3 1013.5 - 0.0 - - - - - - -
28/07:30pm 20.4 W 1 3 1013.4 - 0.0 - - - - - - -
28/07:00pm 20.3 CALM 0 0 1013.1 - 0.0 - - - - - - -
28/06:30pm 20.5 CALM 0 2 1013.1 - 0.0 - - - - - - -
28/06:00pm 20.7 SW 1 2 1012.9 - 0.0 - - - - - - -
28/05:30pm 21.0 CALM 0 1 1012.8 - 0.0 - - - - - - -
28/05:00pm 21.1 S 1 3 1012.6 - 0.0 - - - - - - -
28/04:30pm 21.2 S 3 4 1012.7 - 0.0 - - - - - - -
28/04:00pm 21.3 S 3 5 1013.0 - 0.0 - - - - - - -
28/03:30pm 21.2 S 3 4 1013.0 - 0.0 - - - - - - -
28/03:00pm 21.2 S 3 5 1013.2 - 0.0 - - - - - - -
28/02:30pm 21.1 S 3 5 1013.4 - 0.0 - - - - - - -
28/02:00pm 21.1 S 3 5 1013.6 - 0.0 - - - - - - -
28/01:30pm 21.2 S 3 5 1014.0 - 0.0 - - - - - - -
28/01:00pm 21.1 S 4 5 1014.4 - 0.0 - - - - - - -
28/12:30pm 20.9 SSW 4 7 1014.7 - 0.0 - - - - - - -
28/12:00pm 20.9 SSW 4 6 1014.8 - 0.0 - - - - - - -
28/11:30am 20.7 SSW 4 7 1015.1 - 0.0 - - - - - - -
28/11:00am 21.0 SSW 5 7 1015.0 - 0.0 - - - - - - -
28/10:30am 21.2 SW 4 8 1015.1 - 0.0 - - - - - - -
28/10:00am 21.2 SW 5 9 1014.9 - 0.0 - - - - - - -
28/09:30am 20.8 WSW 4 8 1014.8 - 0.0 - - - - - - -
28/09:00am 19.6 WSW 5 8 1014.7 - 0.0 - - - - - - -
28/08:30am 19.0 WSW 4 6 1014.6 - 0.0 - - - - - - -
28/08:00am 18.6 WSW 3 7 1014.3 - 0.0 - - - - - - -
28/07:30am 18.3 W 4 6 1014.1 - 0.0 - - - - - - -
28/07:00am 18.5 WSW 4 7 1013.7 - 0.0 - - - - - - -
28/06:30am 18.6 WSW 5 9 1013.4 - 0.0 - - - - - - -
28/06:00am 19.1 SW 7 10 1013.3 - 0.0 - - - - - - -
28/05:30am 20.0 S 16 20 1013.2 - 0.0 - - - - - - -
28/05:00am 20.1 S 18 22 1013.1 - 0.0 - - - - - - -
28/04:30am 20.1 S 19 24 1013.2 - 0.0 - - - - - - -
28/04:00am 20.1 S 19 24 1012.9 - 0.0 - - - - - - -
28/03:30am 20.1 SSW 14 19 1012.9 - 0.0 - - - - - - -
28/03:00am 19.9 S 19 25 1012.6 - 0.0 - - - - - - -
28/02:30am 19.2 S 18 26 1012.3 - 0.0 - - - - - - -
28/02:26am 19.2 S 16 26 1012.4 - 0.0 - - - - - - -
28/02:00am 19.6 S 15 21 1012.4 - 0.0 - - - - - - -
28/01:30am 20.1 S 18 23 1012.2 - 0.0 - - - - - - -
28/01:00am 20.2 S 12 19 1012.1 - 0.0 - - - - - - -
28/12:30am 20.5 S 13 20 1012.0 - 0.0 - - - - - - -
28/12:00am 20.4 SSW 12 18 1011.8 - 0.0 - - - - - - -
 
Date/Time
EDT
Temp
°C
Wind Pressure Rain since
9am
mm
Weather Cloud Vis
km
Sea
Height
m
Swell
Dir  Spd
kts
Gust
kts
hPa Trend Height
m
Period
s
Dir
27/11:30pm 20.4 WSW 8 14 1011.9 - 0.0 - - - - - - -
27/11:00pm 20.7 SSW 14 23 1011.7 - 0.0 - - - - - - -
27/10:31pm 20.6 S 17 29 1010.7 - 0.0 - - - - - - -
27/10:30pm 20.7 S 17 26 1010.8 - 0.0 - - - - - - -
27/10:15pm 21.0 SSW 18 29 1011.4 - 0.0 - - - - - - -
27/10:00pm 21.5 SSW 13 25 1010.7 - 0.0 - - - - - - -
27/09:58pm 22.1 SW 10 25 1010.8 - 0.0 - - - - - - -
27/09:30pm 23.2 N 7 8 1010.1 - 0.0 - - - - - - -
27/09:00pm 23.4 N 6 9 1009.8 - 0.0 - - - - - - -
27/08:30pm 23.2 N 3 7 1008.8 - 0.0 - - - - - - -
27/08:00pm 23.1 N 5 7 1007.0 - 0.0 - - - - - - -
27/07:30pm 23.2 NNE 4 7 1006.6 - 0.0 - - - - - - -
27/07:00pm 23.4 NNW 6 12 1006.3 - 0.0 - - - - - - -
27/06:30pm 23.6 N 6 11 1006.5 - 0.0 - - - - - - -
27/06:00pm 23.8 NNE 5 10 1006.6 - 0.0 - - - - - - -
27/05:30pm 24.4 NNE 6 10 1007.2 - 0.0 - - - - - - -
27/05:00pm 24.5 NNE 8 14 1007.4 - 0.0 - - - - - - -
27/04:30pm 24.8 NE 8 13 1007.7 - 0.0 - - - - - - -
27/04:00pm 24.5 NE 14 24 1007.9 - 0.0 - - - - - - -
27/03:30pm 24.5 NE 16 23 1008.2 - 0.0 - - - - - - -
27/03:00pm 24.7 NE 15 22 1008.7 - 0.0 - - - - - - -
27/02:30pm 24.6 NE 18 24 1009.1 - 0.0 - - - - - - -
27/02:00pm 24.5 NE 19 23 1009.9 - 0.0 - - - - - - -
27/01:30pm 24.7 NNE 17 22 1010.5 - 0.0 - - - - - - -
27/01:00pm 24.9 NE 13 19 1011.3 - 0.0 - - - - - - -
27/12:30pm 24.5 NE 11 17 1011.9 - 0.0 - - - - - - -
27/12:00pm 24.1 NE 10 16 1012.6 - 0.0 - - - - - - -
27/11:30am 23.5 NE 12 15 1013.0 - 0.0 - - - - - - -
27/11:00am 23.7 NE 8 13 1013.5 - 0.0 - - - - - - -
27/10:30am 23.9 N 5 9 1013.9 - 0.0 - - - - - - -
27/10:00am 23.6 N 5 11 1014.2 - 0.0 - - - - - - -
27/09:30am 22.9 N 5 9 1014.4 - 0.0 - - - - - - -
27/09:00am 22.3 NNW 5 9 1014.4 - 0.0 - - - - - - -
27/08:30am 21.6 NNW 4 7 1014.5 - 0.0 - - - - - - -
27/08:00am 19.5 NNW 4 7 1014.5 - 0.0 - - - - - - -
27/07:30am 19.1 N 6 9 1014.4 - 0.0 - - - - - - -
27/07:00am 18.9 N 6 9 1014.2 - 0.0 - - - - - - -
27/06:30am 18.6 N 5 8 1014.2 - 0.0 - - - - - - -
27/06:00am 18.8 N 4 6 1014.1 - 0.0 - - - - - - -
27/05:30am 19.1 N 5 9 1014.1 - 0.0 - - - - - - -
27/05:00am 18.9 NNW 4 7 1014.1 - 0.0 - - - - - - -
27/04:30am 18.9 N 4 5 1014.2 - 0.0 - - - - - - -
27/04:00am 19.1 N 4 6 1014.5 - 0.0 - - - - - - -
27/03:30am 19.4 N 5 7 1014.7 - 0.0 - - - - - - -
27/03:00am 19.3 N 4 6 1015.0 - 0.0 - - - - - - -
27/02:30am 19.9 N 4 6 1015.2 - 0.0 - - - - - - -
27/02:00am 19.9 N 3 5 1015.5 - 0.0 - - - - - - -
27/01:30am 19.9 N 4 7 1015.9 - 0.0 - - - - - - -
27/01:00am 19.9 N 2 3 1016.2 - 0.0 - - - - - - -
27/12:30am 20.5 NNW 4 6 1016.2 - 0.0 - - - - - - -
27/12:00am 21.3 N 5 7 1016.2 - 0.0 - - - - - - -
 
Date/Time
EDT
Temp
°C
Wind Pressure Rain since
9am
mm
Weather Cloud Vis
km
Sea
Height
m
Swell
Dir  Spd
kts
Gust
kts
hPa Trend Height
m
Period
s
Dir
26/11:30pm 21.7 N 5 7 1016.5 - 0.0 - - - - - - -
26/11:00pm 21.7 NNW 4 7 1016.7 - 0.0 - - - - - - -
26/10:30pm 21.6 N 3 5 1016.7 - 0.0 - - - - - - -
26/10:00pm 21.6 N 4 6 1016.6 - 0.0 - - - - - - -
26/09:30pm 21.5 N 2 4 1016.4 - 0.0 - - - - - - -
26/09:00pm 22.0 N 4 6 1016.1 - 0.0 - - - - - - -
26/08:30pm 22.2 N 4 6 1015.9 - 0.0 - - - - - - -
26/08:00pm 22.9 N 7 10 1015.5 - 0.0 - - - - - - -
26/07:30pm 23.0 N 3 8 1015.1 - 0.0 - - - - - - -
26/07:00pm 23.2 NE 3 7 1014.7 - 0.0 - - - - - - -
26/06:30pm 23.5 NNE 3 7 1014.6 - 0.0 - - - - - - -
26/06:00pm 23.6 NE 7 10 1014.4 - 0.0 - - - - - - -
26/05:30pm 24.0 NNE 6 9 1014.3 - 0.0 - - - - - - -
26/05:00pm 23.7 NNE 5 8 1014.1 - 0.0 - - - - - - -
26/04:30pm 24.4 NE 4 6 1014.2 - 0.0 - - - - - - -

Other Formats:

Comma delimited format used in spreadsheet applications
http://www.bom.gov.au/fwo/IDN60701/IDN60701.94938.axf

JavaScript Object Notation format (JSON) in row-major order
http://www.bom.gov.au/fwo/IDN60701/IDN60701.94938.json